createdAt,value
2023-03-22T00:01:12.377Z,10
2023-03-22T00:03:14.373Z,10
2023-03-22T00:10:23.410Z,10.1
2023-03-22T00:16:33.031Z,10.1
2023-03-22T00:22:39.187Z,10.1
2023-03-22T00:26:46.568Z,9.9
2023-03-22T00:28:48.679Z,10
2023-03-22T00:32:52.983Z,9.9
2023-03-22T00:34:55.051Z,9.9
2023-03-22T00:41:04.542Z,9.8
2023-03-22T00:51:15.154Z,9.7
2023-03-22T00:55:22.633Z,9.7
2023-03-22T00:57:24.761Z,9.8
2023-03-22T01:02:31.595Z,9.6
2023-03-22T01:04:33.712Z,9.6
2023-03-22T01:10:43.180Z,9.7
2023-03-22T01:12:45.290Z,9.7
2023-03-22T01:14:47.436Z,9.7
2023-03-22T01:20:53.771Z,9.7
2023-03-22T01:22:59.139Z,9.8
2023-03-22T01:27:03.250Z,9.7
2023-03-22T01:29:05.304Z,9.6
2023-03-22T01:31:07.472Z,9.7
2023-03-22T01:37:17.026Z,9.7
2023-03-22T01:43:23.427Z,9.7
2023-03-22T01:45:25.479Z,9.8
2023-03-22T01:47:27.632Z,9.7
2023-03-22T01:49:29.717Z,9.7
2023-03-22T01:53:37.223Z,9.7
2023-03-22T01:55:39.354Z,9.7
2023-03-22T01:58:08.195Z,9.7
2023-03-22T02:00:10.265Z,9.7
2023-03-22T02:02:12.326Z,9.7
2023-03-22T02:04:17.709Z,9.6
2023-03-22T02:06:19.822Z,9.6
2023-03-22T02:08:21.973Z,9.6
2023-03-22T02:10:24.083Z,9.6
2023-03-22T02:12:26.205Z,9.6
2023-03-22T02:14:28.299Z,9.6
2023-03-22T02:18:35.796Z,9.7
2023-03-22T02:20:38.195Z,9.7
2023-03-22T02:22:40.005Z,9.7
2023-03-22T02:24:43.966Z,9.6
2023-03-22T02:26:44.262Z,9.7
2023-03-22T02:32:53.861Z,9.7
2023-03-22T02:39:00.242Z,9.7
2023-03-22T02:41:02.382Z,9.6
2023-03-22T02:43:04.408Z,9.6
2023-03-22T02:45:06.523Z,9.7
2023-03-22T02:47:11.908Z,9.6
2023-03-22T02:49:15.568Z,9.6
2023-03-22T02:51:17.625Z,9.7
2023-03-22T02:56:24.473Z,9.7
2023-03-22T03:00:31.991Z,9.7
2023-03-22T03:02:34.051Z,9.7
2023-03-22T03:12:44.635Z,10.1
2023-03-22T03:14:50.006Z,10.1
2023-03-22T03:16:52.221Z,10.1
2023-03-22T03:18:54.236Z,10.2
2023-03-22T03:20:56.345Z,10.3
2023-03-22T03:22:58.506Z,10.3
2023-03-22T03:25:00.607Z,10.5
2023-03-22T03:27:03.216Z,10.4
2023-03-22T03:31:10.249Z,10.5
2023-03-22T03:37:16.542Z,10.6
2023-03-22T03:41:20.809Z,10.7
2023-03-22T03:43:26.152Z,10.7
2023-03-22T03:45:28.285Z,10.6
2023-03-22T03:47:30.341Z,10.6
2023-03-22T03:48:32.988Z,10.6
2023-03-22T03:50:35.144Z,10.6
2023-03-22T03:52:37.181Z,10.6
2023-03-22T03:54:39.309Z,10.6
2023-03-22T03:56:44.714Z,10.6
2023-03-22T03:58:46.822Z,10.6
2023-03-22T04:00:48.955Z,10.6
2023-03-22T04:02:51.095Z,10.6
2023-03-22T04:04:53.213Z,10.5
2023-03-22T04:06:55.352Z,10.5
2023-03-22T04:08:57.473Z,10.5
2023-03-22T04:11:02.841Z,10.4
2023-03-22T04:13:04.951Z,10.4
2023-03-22T04:15:07.016Z,10.3
2023-03-22T04:19:11.292Z,10.3
2023-03-22T04:21:13.410Z,10.3
2023-03-22T04:23:15.531Z,10.3
2023-03-22T04:25:20.922Z,10.4
2023-03-22T04:27:23.076Z,10.3
2023-03-22T04:29:25.176Z,10.3
2023-03-22T04:31:27.391Z,10.3
2023-03-22T04:33:29.448Z,10.3
2023-03-22T04:35:31.584Z,10.2
2023-03-22T04:37:33.629Z,10.2
2023-03-22T04:39:38.974Z,10.2
2023-03-22T04:43:43.160Z,10.1
2023-03-22T04:44:45.823Z,10.2
2023-03-22T04:46:47.902Z,10.1
2023-03-22T04:48:50.008Z,10.1
2023-03-22T04:50:52.130Z,10.2
2023-03-22T04:52:57.500Z,10.2
2023-03-22T04:54:59.632Z,10.2
2023-03-22T04:57:01.783Z,10.1
2023-03-22T04:59:03.923Z,10.1
2023-03-22T05:01:06.047Z,10.2
2023-03-22T05:03:08.256Z,10.1
2023-03-22T05:05:10.269Z,10.1
2023-03-22T05:07:15.641Z,10.1
2023-03-22T05:09:17.777Z,10.1
2023-03-22T05:11:19.884Z,10
2023-03-22T05:13:21.999Z,10.1
2023-03-22T05:15:24.161Z,10
2023-03-22T05:21:33.648Z,10.1
2023-03-22T05:31:44.223Z,10
2023-03-22T05:33:46.308Z,10
2023-03-22T05:35:51.702Z,10
2023-03-22T05:37:53.821Z,10.1
2023-03-22T05:39:55.919Z,10.1
2023-03-22T05:42:24.781Z,10.1
2023-03-22T05:50:36.469Z,10
2023-03-22T05:54:40.637Z,10
2023-03-22T05:58:44.879Z,10
2023-03-22T06:02:52.417Z,9.9
2023-03-22T06:11:00.907Z,9.8
2023-03-22T06:13:03.067Z,9.8
2023-03-22T06:17:10.497Z,9.9
2023-03-22T06:19:12.592Z,9.8
2023-03-22T06:21:14.723Z,9.9
2023-03-22T06:23:16.854Z,9.8
2023-03-22T06:25:18.955Z,9.7
2023-03-22T06:27:21.079Z,9.8
2023-03-22T06:29:23.190Z,9.8
2023-03-22T06:31:28.530Z,9.8
2023-03-22T06:33:30.663Z,9.8
2023-03-22T06:36:35.445Z,9.9
2023-03-22T06:38:37.589Z,9.9
2023-03-22T06:40:40.055Z,10
2023-03-22T06:42:41.805Z,10
2023-03-22T06:44:47.187Z,10
2023-03-22T06:48:51.396Z,10.1
2023-03-22T06:50:53.544Z,10.1
2023-03-22T06:52:55.654Z,10.2
2023-03-22T06:54:57.766Z,10.3
2023-03-22T06:56:59.894Z,10.4
2023-03-22T06:59:05.235Z,10.3
2023-03-22T07:01:07.407Z,10.4
2023-03-22T07:03:09.453Z,10.5
2023-03-22T07:05:11.564Z,10.5
2023-03-22T07:07:13.597Z,10.6
2023-03-22T07:23:33.870Z,10.8
2023-03-22T07:25:36.021Z,10.8
2023-03-22T07:27:41.405Z,11
2023-03-22T07:29:43.507Z,11
2023-03-22T07:31:45.809Z,10.9
2023-03-22T07:32:48.324Z,10.9
2023-03-22T07:34:50.448Z,10.9
2023-03-22T07:36:52.824Z,10.8
2023-03-22T07:38:54.744Z,10.9
2023-03-22T07:41:00.135Z,10.9
2023-03-22T07:43:02.176Z,10.9
2023-03-22T07:45:04.370Z,10.9
2023-03-22T07:47:06.429Z,10.8
2023-03-22T07:51:10.714Z,10.9
2023-03-22T07:53:12.860Z,10.8
2023-03-22T07:57:20.044Z,10.8
2023-03-22T08:01:24.367Z,10.8
2023-03-22T08:07:30.793Z,10.8
2023-03-22T08:09:36.082Z,10.8
2023-03-22T08:11:38.101Z,10.9
2023-03-22T08:13:40.132Z,10.9
2023-03-22T08:15:42.238Z,11
2023-03-22T08:17:44.301Z,11
2023-03-22T08:19:46.338Z,11.1
2023-03-22T08:21:48.501Z,11.2
2023-03-22T08:31:02.596Z,11.3
2023-03-22T08:33:04.746Z,11.3
2023-03-22T08:35:06.885Z,11.4
2023-03-22T08:37:12.152Z,11.4
2023-03-22T08:39:14.315Z,11.4
2023-03-22T08:41:18.003Z,11.5
2023-03-22T08:43:20.007Z,11.4
2023-03-22T08:45:22.124Z,11.5
2023-03-22T08:47:24.076Z,11.6
2023-03-22T08:49:26.235Z,11.4
2023-03-22T08:51:31.520Z,11.4
2023-03-22T08:53:33.695Z,11.5
2023-03-22T08:55:35.815Z,11.6
2023-03-22T08:57:38.939Z,11.6
2023-03-22T08:59:40.091Z,11.6
2023-03-22T09:01:42.269Z,11.7
2023-03-22T09:03:44.305Z,11.8
2023-03-22T09:07:51.744Z,11.9
2023-03-22T09:11:55.925Z,11.7
2023-03-22T09:13:58.025Z,11.8
2023-03-22T09:16:00.287Z,11.7
2023-03-22T09:18:02.297Z,11.7
2023-03-22T09:20:12.965Z,12.1
2023-03-22T09:22:09.626Z,12
2023-03-22T09:24:11.770Z,12.3
2023-03-22T09:26:40.468Z,12.3
2023-03-22T09:28:42.547Z,12.2
2023-03-22T09:30:44.796Z,12.2
2023-03-22T09:32:49.941Z,12.1
2023-03-22T09:34:51.979Z,12
2023-03-22T09:36:55.711Z,12.1
2023-03-22T09:38:56.108Z,12
2023-03-22T09:40:58.165Z,12.1
2023-03-22T09:43:00.234Z,12.1
2023-03-22T09:45:02.261Z,12.1
2023-03-22T09:47:07.451Z,12
2023-03-22T09:49:09.510Z,12
2023-03-22T09:51:11.559Z,12
2023-03-22T09:53:13.610Z,12
2023-03-22T09:55:15.658Z,11.9
2023-03-22T10:01:25.210Z,11.9
2023-03-22T10:03:27.029Z,12
2023-03-22T10:05:29.090Z,12.1
2023-03-22T10:09:33.187Z,12
2023-03-22T10:13:37.412Z,11.6
2023-03-22T10:15:43.000Z,11.5
2023-03-22T10:17:44.659Z,11.6
2023-03-22T10:19:46.701Z,11.5
2023-03-22T10:20:49.291Z,11.4
2023-03-22T10:22:53.291Z,11.2
2023-03-22T10:24:53.401Z,11.2
2023-03-22T10:26:55.484Z,11.1
2023-03-22T10:29:02.769Z,11
2023-03-22T10:31:05.595Z,11.1
2023-03-22T10:33:04.868Z,11
2023-03-22T10:35:06.892Z,11.1
2023-03-22T10:37:08.988Z,11.1
2023-03-22T10:39:11.133Z,11.1
2023-03-22T10:41:13.272Z,11
2023-03-22T10:43:18.683Z,11.1
2023-03-22T10:45:20.773Z,11
2023-03-22T10:47:22.798Z,11
2023-03-22T10:49:24.912Z,11.1
2023-03-22T10:51:26.988Z,11
2023-03-22T10:53:29.113Z,11
2023-03-22T10:55:31.146Z,11
2023-03-22T10:57:36.464Z,11
2023-03-22T10:59:38.508Z,11
2023-03-22T11:01:40.718Z,11.1
2023-03-22T11:05:44.842Z,11
2023-03-22T11:07:46.884Z,10.9
2023-03-22T11:09:49.034Z,10.9
2023-03-22T11:13:56.586Z,10.8
2023-03-22T11:15:58.729Z,10.8
2023-03-22T11:21:05.705Z,10.7
2023-03-22T11:23:07.723Z,10.7
2023-03-22T11:29:17.105Z,10.5
2023-03-22T11:31:19.319Z,10.5
2023-03-22T11:33:21.408Z,10.5
2023-03-22T11:35:23.659Z,10.5
2023-03-22T11:37:25.688Z,10.4
2023-03-22T11:39:31.079Z,10.5
2023-03-22T11:41:33.089Z,10.5
2023-03-22T11:43:35.151Z,10.5
2023-03-22T11:45:37.487Z,10.6
2023-03-22T11:47:39.602Z,10.6
2023-03-22T11:49:41.565Z,10.7
2023-03-22T11:51:43.708Z,10.6
2023-03-22T11:53:48.985Z,10.8
2023-03-22T11:55:51.116Z,10.8
2023-03-22T11:57:53.152Z,10.8
2023-03-22T11:59:55.298Z,10.7
2023-03-22T12:01:57.418Z,10.8
2023-03-22T12:08:07.012Z,10.9
2023-03-22T12:10:09.039Z,10.9
2023-03-22T12:12:11.157Z,11
2023-03-22T12:13:13.744Z,11
2023-03-22T12:17:17.930Z,11
2023-03-22T12:21:25.351Z,11
2023-03-22T12:23:27.483Z,11
2023-03-22T12:25:29.442Z,11.1
2023-03-22T12:33:38.027Z,11
2023-03-22T12:35:43.776Z,11
2023-03-22T12:39:47.596Z,11
2023-03-22T12:41:49.719Z,11.1
2023-03-22T12:45:54.026Z,11.2
2023-03-22T12:50:01.230Z,11.3
2023-03-22T12:56:07.595Z,11.2
2023-03-22T12:58:09.722Z,11.3
2023-03-22T13:00:11.885Z,11.2
2023-03-22T13:02:13.934Z,11.3
2023-03-22T13:04:19.232Z,11.3
2023-03-22T13:06:21.366Z,11.2
2023-03-22T13:08:23.513Z,11.2
2023-03-22T13:10:52.258Z,11.3
2023-03-22T13:12:54.381Z,11.3
2023-03-22T13:17:01.663Z,11.3
2023-03-22T13:25:10.229Z,11.3
2023-03-22T13:27:12.402Z,11.3
2023-03-22T13:31:19.805Z,11.3
2023-03-22T13:33:21.870Z,11.3
2023-03-22T13:35:24.156Z,11.4
2023-03-22T13:37:26.034Z,11.3
2023-03-22T13:39:28.202Z,11.4
2023-03-22T13:41:30.239Z,11.4
2023-03-22T13:43:32.315Z,11.4
2023-03-22T13:45:37.502Z,11.4
2023-03-22T13:47:39.653Z,11.3
2023-03-22T13:49:41.773Z,11.4
2023-03-22T13:51:43.927Z,11.3
2023-03-22T13:53:46.000Z,11.2
2023-03-22T13:55:48.134Z,11.4
2023-03-22T13:57:50.314Z,11.3
2023-03-22T14:01:57.834Z,11.2
2023-03-22T14:04:00.025Z,11.1
2023-03-22T14:05:02.555Z,11.1
2023-03-22T14:07:04.625Z,11.1
2023-03-22T14:09:06.748Z,11.2
2023-03-22T14:11:08.885Z,11.1
2023-03-22T14:13:14.100Z,11.2
2023-03-22T14:15:16.132Z,11.2
2023-03-22T14:17:18.307Z,11.2
2023-03-22T14:19:20.343Z,11.2
2023-03-22T14:21:22.512Z,11.2
2023-03-22T14:52:02.925Z,10.9
2023-03-22T14:56:09.622Z,11
2023-03-22T15:00:13.918Z,11
2023-03-22T15:01:16.618Z,11
2023-03-22T15:03:18.953Z,11
2023-03-22T15:05:20.799Z,11
2023-03-22T15:11:30.379Z,11
2023-03-22T15:13:32.535Z,10.9
2023-03-22T15:15:34.729Z,10.9
2023-03-22T15:17:37.517Z,10.9
2023-03-22T15:19:38.858Z,10.9
2023-03-22T15:21:40.880Z,11
2023-03-22T15:23:46.188Z,10.9
2023-03-22T15:25:48.323Z,10.9
2023-03-22T15:27:50.370Z,10.9
2023-03-22T15:29:52.413Z,10.8
2023-03-22T15:31:54.514Z,10.9
2023-03-22T15:33:56.514Z,10.9
2023-03-22T15:38:03.974Z,10.9
2023-03-22T15:40:06.126Z,10.9
2023-03-22T15:42:08.158Z,10.8
2023-03-22T15:44:10.169Z,10.8
2023-03-22T15:46:12.400Z,10.8
2023-03-22T15:48:14.368Z,10.9
2023-03-22T15:54:23.861Z,10.9
2023-03-22T15:56:29.105Z,10.8
2023-03-22T15:57:28.693Z,10.9
2023-03-22T16:01:32.898Z,10.8
2023-03-22T16:03:35.069Z,10.8
2023-03-22T16:05:40.317Z,11
2023-03-22T16:07:42.255Z,10.9
2023-03-22T16:11:46.433Z,10.9
2023-03-22T16:13:48.472Z,10.9
2023-03-22T16:15:50.534Z,11
2023-03-22T16:17:52.673Z,11
2023-03-22T16:19:58.006Z,11
2023-03-22T16:21:59.986Z,11
2023-03-22T16:24:02.129Z,10.8
2023-03-22T16:28:06.406Z,10.8
2023-03-22T16:30:08.445Z,10.8
2023-03-22T16:32:10.570Z,10.8
2023-03-22T16:36:17.813Z,10.7
2023-03-22T16:38:19.891Z,10.7
2023-03-22T16:40:21.939Z,10.6
2023-03-22T16:42:24.413Z,10.6
2023-03-22T16:44:26.091Z,10.6
2023-03-22T16:46:28.276Z,10.5
2023-03-22T16:48:33.810Z,10.6
2023-03-22T16:50:35.559Z,10.5
2023-03-22T16:55:06.540Z,10.5
2023-03-22T17:05:21.150Z,10.7
2023-03-22T17:07:22.538Z,10.6
2023-03-22T17:09:24.624Z,10.5
2023-03-22T17:11:26.724Z,10.6
2023-03-22T17:17:36.158Z,10.5
2023-03-22T17:19:38.190Z,10.5
2023-03-22T17:27:46.669Z,10.6
2023-03-22T17:42:04.894Z,10.7
2023-03-22T17:46:57.350Z,10.7
2023-03-22T17:48:14.424Z,10.7
2023-03-22T17:49:17.036Z,10.7
2023-03-22T17:51:19.145Z,10.7
2023-03-22T17:53:48.889Z,10.7
2023-03-22T17:57:56.185Z,10.8
2023-03-22T18:07:39.302Z,10.8
2023-03-22T18:11:46.540Z,10.9
2023-03-22T18:13:52.143Z,10.8
2023-03-22T18:15:50.745Z,10.7
2023-03-22T18:21:57.052Z,10.6
2023-03-22T18:30:08.546Z,10.6
2023-03-22T18:32:17.814Z,10.7
2023-03-22T18:34:12.832Z,10.7
2023-03-22T18:41:01.426Z,10.7
2023-03-22T18:44:26.491Z,10.7
2023-03-22T18:45:47.228Z,10.7
2023-03-22T18:47:31.220Z,10.7
2023-03-22T18:55:49.165Z,10.8
2023-03-22T19:03:51.433Z,10.8
2023-03-22T19:05:53.645Z,10.8
2023-03-22T19:08:14.548Z,10.9
2023-03-22T19:16:07.253Z,10.9
2023-03-22T19:18:09.321Z,10.9
2023-03-22T19:20:11.374Z,10.9
2023-03-22T19:22:16.708Z,10.9
2023-03-22T19:26:22.231Z,10.9
2023-03-22T19:28:27.172Z,11
2023-03-22T19:30:25.547Z,11
2023-03-22T19:32:27.701Z,11
2023-03-22T19:34:29.810Z,11
2023-03-22T19:36:35.023Z,11
2023-03-22T19:43:43.752Z,11
2023-03-22T19:45:45.748Z,11
2023-03-22T19:55:59.598Z,11
2023-03-22T19:58:01.732Z,11
2023-03-22T20:08:15.175Z,11
2023-03-22T20:10:17.227Z,11
2023-03-22T20:14:21.376Z,11
2023-03-22T20:20:30.850Z,11
2023-03-22T20:22:32.998Z,11
2023-03-22T20:24:35.032Z,11
2023-03-22T20:26:38.744Z,11
2023-03-22T20:28:40.818Z,11
2023-03-22T20:30:42.908Z,11
2023-03-22T20:32:48.830Z,11
2023-03-22T20:34:50.433Z,11
2023-03-22T20:39:21.297Z,10.9
2023-03-22T20:41:23.420Z,10.9
2023-03-22T20:45:30.770Z,10.9
2023-03-22T20:47:33.450Z,10.9
2023-03-22T20:53:39.144Z,10.8
2023-03-22T20:55:41.517Z,10.7
2023-03-22T20:57:43.424Z,10.7
2023-03-22T20:59:48.815Z,10.8
2023-03-22T21:01:50.957Z,10.8
2023-03-22T21:18:11.326Z,11
2023-03-22T21:20:20.681Z,11
2023-03-22T21:22:15.396Z,11
2023-03-22T21:24:17.528Z,11
2023-03-22T21:26:19.575Z,11
2023-03-22T21:28:24.967Z,11
2023-03-22T21:32:29.231Z,11
2023-03-22T21:33:31.971Z,11.1
2023-03-22T21:35:34.075Z,11.1
2023-03-22T21:39:38.359Z,11.2
2023-03-22T21:43:45.784Z,11.2
2023-03-22T21:45:47.817Z,11.1
2023-03-22T21:47:49.933Z,11.1
2023-03-22T22:06:11.998Z,11.4
2023-03-22T22:08:14.027Z,11.4
2023-03-22T22:10:19.410Z,11.3
2023-03-22T22:12:21.561Z,11.3
2023-03-22T22:14:23.694Z,11.3
2023-03-22T22:16:25.742Z,11.3
2023-03-22T22:18:27.900Z,11.3
2023-03-22T22:20:30.037Z,11.3
2023-03-22T22:22:32.174Z,11.3
2023-03-22T22:24:37.458Z,11.3
2023-03-22T22:26:39.619Z,11.3
2023-03-22T22:28:41.744Z,11.3
2023-03-22T22:29:44.327Z,11.3
2023-03-22T22:31:46.471Z,11.3
2023-03-22T22:35:50.687Z,11.3
2023-03-22T22:37:55.938Z,11.3
2023-03-22T22:39:58.093Z,11.3
2023-03-22T22:42:00.212Z,11.3
2023-03-22T22:44:02.373Z,11.2
2023-03-22T22:50:09.630Z,11.3
2023-03-22T22:52:14.922Z,11.2
2023-03-22T22:58:21.142Z,11.3
2023-03-22T23:06:32.834Z,11.3
2023-03-22T23:08:34.919Z,11.3
2023-03-22T23:12:39.140Z,11.3
2023-03-22T23:16:43.292Z,11.2
2023-03-22T23:18:45.333Z,11.3
2023-03-22T23:20:50.723Z,11.4
2023-03-22T23:22:52.766Z,11.4
2023-03-22T23:24:54.823Z,11.4
2023-03-22T23:25:57.501Z,11.3
2023-03-22T23:32:03.828Z,11.4
2023-03-22T23:34:09.176Z,11.4
2023-03-22T23:36:11.337Z,11.4
2023-03-22T23:38:13.558Z,11.3
2023-03-22T23:40:15.592Z,11.4
2023-03-22T23:50:29.386Z,11.4
2023-03-22T23:52:31.535Z,11.4
2023-03-22T23:54:33.680Z,11.4
2023-03-22T23:56:35.841Z,11.4
